sensor_id;sensor_type;location;lat;lon;timestamp;P1;durP1;ratioP1;P2;durP2;ratioP2
61570;SDS011;47463;49.884;10.010;2023-09-12T00:00:00;20.3;;;10.3;;
61570;SDS011;47463;49.884;10.010;2023-09-12T00:05:00;20;;;10.4;;
61570;SDS011;47463;49.884;10.010;2023-09-12T00:10:00;22.7;;;10.4;;
61570;SDS011;47463;49.884;10.010;2023-09-12T00:15:00;19.1;;;10.2;;
61570;SDS011;47463;49.884;10.010;2023-09-12T00:20:00;19.6;;;10.1;;
61570;SDS011;47463;49.884;10.010;2023-09-12T00:25:00;19.6;;;10.1;;
61570;SDS011;47463;49.884;10.010;2023-09-12T00:30:00;19.6;;;9.7;;
61570;SDS011;47463;49.884;10.010;2023-09-12T00:35:00;21.2;;;9.9;;
61570;SDS011;47463;49.884;10.010;2023-09-12T00:40:00;18.5;;;10.1;;
61570;SDS011;47463;49.884;10.010;2023-09-12T00:45:00;21.3;;;9.8;;
61570;SDS011;47463;49.884;10.010;2023-09-12T00:50:00;20.2;;;9.8;;
61570;SDS011;47463;49.884;10.010;2023-09-12T00:55:00;20.2;;;9.8;;
61570;SDS011;47463;49.884;10.010;2023-09-12T01:00:00;18.9;;;10;;
61570;SDS011;47463;49.884;10.010;2023-09-12T01:05:00;16.2;;;9.8;;
61570;SDS011;47463;49.884;10.010;2023-09-12T01:10:00;18.7;;;10.5;;
61570;SDS011;47463;49.884;10.010;2023-09-12T01:15:00;21;;;10.1;;
61570;SDS011;47463;49.884;10.010;2023-09-12T01:20:00;19.1;;;10.8;;
61570;SDS011;47463;49.884;10.010;2023-09-12T01:25:03;19.1;;;10.8;;
61570;SDS011;47463;49.884;10.010;2023-09-12T01:30:00;21.3;;;10.1;;
61570;SDS011;47463;49.884;10.010;2023-09-12T01:35:00;19.7;;;9.9;;
61570;SDS011;47463;49.884;10.010;2023-09-12T01:40:00;19.2;;;9.7;;
61570;SDS011;47463;49.884;10.010;2023-09-12T01:45:00;22.9;;;10.3;;
61570;SDS011;47463;49.884;10.010;2023-09-12T01:50:00;22.3;;;11;;
61570;SDS011;47463;49.884;10.010;2023-09-12T01:55:00;22.3;;;11;;
61570;SDS011;47463;49.884;10.010;2023-09-12T02:00:00;19.2;;;10.2;;
61570;SDS011;47463;49.884;10.010;2023-09-12T02:05:03;21;;;10.4;;
61570;SDS011;47463;49.884;10.010;2023-09-12T02:10:00;21.2;;;10.3;;
61570;SDS011;47463;49.884;10.010;2023-09-12T02:15:00;23.1;;;11.3;;
61570;SDS011;47463;49.884;10.010;2023-09-12T02:20:00;25.1;;;10.7;;
61570;SDS011;47463;49.884;10.010;2023-09-12T02:25:00;25.1;;;10.7;;
61570;SDS011;47463;49.884;10.010;2023-09-12T02:30:00;20.5;;;11.8;;
61570;SDS011;47463;49.884;10.010;2023-09-12T02:35:00;21.6;;;12.2;;
61570;SDS011;47463;49.884;10.010;2023-09-12T02:40:00;22.8;;;12.1;;
61570;SDS011;47463;49.884;10.010;2023-09-12T02:45:00;20.7;;;11.2;;
61570;SDS011;47463;49.884;10.010;2023-09-12T02:50:00;21;;;12.2;;
61570;SDS011;47463;49.884;10.010;2023-09-12T02:55:00;21;;;12.2;;
61570;SDS011;47463;49.884;10.010;2023-09-12T03:00:00;21.6;;;11.8;;
61570;SDS011;47463;49.884;10.010;2023-09-12T03:05:00;24;;;11.3;;
61570;SDS011;47463;49.884;10.010;2023-09-12T03:10:00;23.1;;;11.4;;
61570;SDS011;47463;49.884;10.010;2023-09-12T03:15:00;23.2;;;12.6;;
61570;SDS011;47463;49.884;10.010;2023-09-12T03:20:00;19.9;;;12;;
61570;SDS011;47463;49.884;10.010;2023-09-12T03:25:00;19.9;;;12;;
61570;SDS011;47463;49.884;10.010;2023-09-12T03:30:00;26.5;;;13.1;;
61570;SDS011;47463;49.884;10.010;2023-09-12T03:35:00;23.8;;;12.3;;
61570;SDS011;47463;49.884;10.010;2023-09-12T03:40:00;26.1;;;12.5;;
61570;SDS011;47463;49.884;10.010;2023-09-12T03:45:00;29.3;;;13.4;;
61570;SDS011;47463;49.884;10.010;2023-09-12T03:50:00;23.3;;;12.7;;
61570;SDS011;47463;49.884;10.010;2023-09-12T03:55:00;23.3;;;12.7;;
61570;SDS011;47463;49.884;10.010;2023-09-12T04:00:00;22.4;;;13.1;;
61570;SDS011;47463;49.884;10.010;2023-09-12T04:05:00;24.4;;;12.6;;
61570;SDS011;47463;49.884;10.010;2023-09-12T04:10:00;22.7;;;13.1;;
61570;SDS011;47463;49.884;10.010;2023-09-12T04:15:00;23.9;;;13.5;;
61570;SDS011;47463;49.884;10.010;2023-09-12T04:20:00;26.8;;;13.4;;
61570;SDS011;47463;49.884;10.010;2023-09-12T04:25:00;26.8;;;13.4;;
61570;SDS011;47463;49.884;10.010;2023-09-12T04:30:00;26.2;;;13.4;;
61570;SDS011;47463;49.884;10.010;2023-09-12T04:35:00;26.3;;;13.8;;
61570;SDS011;47463;49.884;10.010;2023-09-12T04:40:00;30.6;;;13.5;;
61570;SDS011;47463;49.884;10.010;2023-09-12T04:45:00;28.9;;;13.1;;
61570;SDS011;47463;49.884;10.010;2023-09-12T04:50:00;24.7;;;13.1;;
61570;SDS011;47463;49.884;10.010;2023-09-12T04:55:00;24.7;;;13.1;;
61570;SDS011;47463;49.884;10.010;2023-09-12T05:00:00;25.5;;;12.5;;
61570;SDS011;47463;49.884;10.010;2023-09-12T05:05:00;25;;;13.6;;
61570;SDS011;47463;49.884;10.010;2023-09-12T05:10:00;28.1;;;15.1;;
61570;SDS011;47463;49.884;10.010;2023-09-12T05:15:00;25.9;;;14.5;;
61570;SDS011;47463;49.884;10.010;2023-09-12T05:20:00;27.3;;;14.5;;
61570;SDS011;47463;49.884;10.010;2023-09-12T05:25:00;27.3;;;14.5;;
61570;SDS011;47463;49.884;10.010;2023-09-12T05:30:00;26.8;;;14.4;;
61570;SDS011;47463;49.884;10.010;2023-09-12T05:35:00;27.6;;;14.8;;
61570;SDS011;47463;49.884;10.010;2023-09-12T05:40:00;28;;;13.4;;
61570;SDS011;47463;49.884;10.010;2023-09-12T05:45:00;29.2;;;13.2;;
61570;SDS011;47463;49.884;10.010;2023-09-12T05:50:00;21.8;;;12.5;;
61570;SDS011;47463;49.884;10.010;2023-09-12T05:55:00;21.8;;;12.5;;
61570;SDS011;47463;49.884;10.010;2023-09-12T06:00:00;20.4;;;13.3;;
61570;SDS011;47463;49.884;10.010;2023-09-12T06:05:00;28.1;;;13.8;;
61570;SDS011;47463;49.884;10.010;2023-09-12T06:10:00;21.4;;;12;;
61570;SDS011;47463;49.884;10.010;2023-09-12T06:15:00;21;;;11.9;;
61570;SDS011;47463;49.884;10.010;2023-09-12T06:20:00;21.7;;;12.1;;
61570;SDS011;47463;49.884;10.010;2023-09-12T06:25:00;21.7;;;12.1;;
61570;SDS011;47463;49.884;10.010;2023-09-12T06:30:00;24.8;;;12.5;;
61570;SDS011;47463;49.884;10.010;2023-09-12T06:35:00;20.3;;;11.8;;
61570;SDS011;47463;49.884;10.010;2023-09-12T06:40:00;21;;;11.2;;
61570;SDS011;47463;49.884;10.010;2023-09-12T06:45:00;21.1;;;11.9;;
61570;SDS011;47463;49.884;10.010;2023-09-12T06:50:00;26.8;;;11.8;;
61570;SDS011;47463;49.884;10.010;2023-09-12T06:55:00;26.8;;;11.8;;
61570;SDS011;47463;49.884;10.010;2023-09-12T07:00:00;27.6;;;11.7;;
61570;SDS011;47463;49.884;10.010;2023-09-12T07:05:00;23.3;;;10.9;;
61570;SDS011;47463;49.884;10.010;2023-09-12T07:10:00;17.5;;;11.1;;
61570;SDS011;47463;49.884;10.010;2023-09-12T07:15:00;20.3;;;11.7;;
61570;SDS011;47463;49.884;10.010;2023-09-12T07:20:00;19.7;;;11.8;;
61570;SDS011;47463;49.884;10.010;2023-09-12T07:25:00;19.7;;;11.8;;
61570;SDS011;47463;49.884;10.010;2023-09-12T07:30:00;23.4;;;12.4;;
61570;SDS011;47463;49.884;10.010;2023-09-12T07:35:00;23.4;;;11.5;;
61570;SDS011;47463;49.884;10.010;2023-09-12T07:40:00;23.5;;;11.5;;
61570;SDS011;47463;49.884;10.010;2023-09-12T07:45:00;19.1;;;11.5;;
61570;SDS011;47463;49.884;10.010;2023-09-12T07:50:00;17.7;;;10.9;;
61570;SDS011;47463;49.884;10.010;2023-09-12T07:55:00;17.7;;;10.9;;
61570;SDS011;47463;49.884;10.010;2023-09-12T08:00:00;16.7;;;8.9;;
61570;SDS011;47463;49.884;10.010;2023-09-12T08:05:00;20.9;;;10.1;;
61570;SDS011;47463;49.884;10.010;2023-09-12T08:10:00;18.9;;;9.7;;
61570;SDS011;47463;49.884;10.010;2023-09-12T08:15:00;17.3;;;9.9;;
61570;SDS011;47463;49.884;10.010;2023-09-12T08:20:00;17.1;;;9.3;;
61570;SDS011;47463;49.884;10.010;2023-09-12T08:25:00;17.1;;;9.3;;
61570;SDS011;47463;49.884;10.010;2023-09-12T08:30:00;19.2;;;9.5;;
61570;SDS011;47463;49.884;10.010;2023-09-12T08:35:00;15.8;;;8.9;;
61570;SDS011;47463;49.884;10.010;2023-09-12T08:40:00;16.6;;;8.9;;
61570;SDS011;47463;49.884;10.010;2023-09-12T08:45:00;13.6;;;7.6;;
61570;SDS011;47463;49.884;10.010;2023-09-12T08:50:00;14.5;;;9;;
61570;SDS011;47463;49.884;10.010;2023-09-12T08:55:00;14.5;;;9;;
61570;SDS011;47463;49.884;10.010;2023-09-12T09:00:00;18.2;;;8;;
61570;SDS011;47463;49.884;10.010;2023-09-12T09:05:00;20.7;;;9.6;;
61570;SDS011;47463;49.884;10.010;2023-09-12T09:10:00;12.9;;;9.4;;
61570;SDS011;47463;49.884;10.010;2023-09-12T09:15:02;17.7;;;9;;
61570;SDS011;47463;49.884;10.010;2023-09-12T09:20:00;15.1;;;8.5;;
61570;SDS011;47463;49.884;10.010;2023-09-12T09:25:09;15.1;;;8.5;;
61570;SDS011;47463;49.884;10.010;2023-09-12T09:30:00;18.7;;;9.6;;
61570;SDS011;47463;49.884;10.010;2023-09-12T09:35:00;17.2;;;9.8;;
61570;SDS011;47463;49.884;10.010;2023-09-12T09:40:00;16.5;;;9.1;;
61570;SDS011;47463;49.884;10.010;2023-09-12T09:45:00;22.1;;;10.3;;
61570;SDS011;47463;49.884;10.010;2023-09-12T09:50:00;14.6;;;10.9;;
61570;SDS011;47463;49.884;10.010;2023-09-12T09:55:00;14.6;;;10.9;;
61570;SDS011;47463;49.884;10.010;2023-09-12T10:00:00;13.3;;;10.1;;
61570;SDS011;47463;49.884;10.010;2023-09-12T10:05:00;15.4;;;9.1;;
61570;SDS011;47463;49.884;10.010;2023-09-12T10:10:00;14.6;;;9.3;;
61570;SDS011;47463;49.884;10.010;2023-09-12T10:15:00;15.7;;;8.6;;
61570;SDS011;47463;49.884;10.010;2023-09-12T10:20:01;14.7;;;8.7;;
61570;SDS011;47463;49.884;10.010;2023-09-12T10:25:00;14.7;;;8.7;;
61570;SDS011;47463;49.884;10.010;2023-09-12T10:30:00;16.7;;;9.2;;
61570;SDS011;47463;49.884;10.010;2023-09-12T10:35:00;16.6;;;9.7;;
61570;SDS011;47463;49.884;10.010;2023-09-12T10:40:00;15.4;;;9.8;;
61570;SDS011;47463;49.884;10.010;2023-09-12T10:45:00;16.1;;;9.1;;
61570;SDS011;47463;49.884;10.010;2023-09-12T10:50:00;13.5;;;9.5;;
61570;SDS011;47463;49.884;10.010;2023-09-12T10:55:00;13.5;;;9.5;;
61570;SDS011;47463;49.884;10.010;2023-09-12T11:00:11;16.3;;;9.4;;
61570;SDS011;47463;49.884;10.010;2023-09-12T11:05:00;20.8;;;9.9;;
61570;SDS011;47463;49.884;10.010;2023-09-12T11:10:16;18.5;;;9.6;;
61570;SDS011;47463;49.884;10.010;2023-09-12T11:15:03;14.1;;;9.3;;
61570;SDS011;47463;49.884;10.010;2023-09-12T11:20:02;21.5;;;9.5;;
61570;SDS011;47463;49.884;10.010;2023-09-12T11:25:01;21.5;;;9.5;;
61570;SDS011;47463;49.884;10.010;2023-09-12T11:30:03;15.8;;;9.4;;
61570;SDS011;47463;49.884;10.010;2023-09-12T11:35:04;14.6;;;9;;
61570;SDS011;47463;49.884;10.010;2023-09-12T11:40:00;15.5;;;9.7;;
61570;SDS011;47463;49.884;10.010;2023-09-12T11:45:00;13.3;;;8.6;;
61570;SDS011;47463;49.884;10.010;2023-09-12T11:50:00;14.7;;;8.4;;
61570;SDS011;47463;49.884;10.010;2023-09-12T11:55:00;14.7;;;8.4;;
61570;SDS011;47463;49.884;10.010;2023-09-12T12:00:02;15.1;;;8.7;;
61570;SDS011;47463;49.884;10.010;2023-09-12T12:05:00;15.4;;;9;;
61570;SDS011;47463;49.884;10.010;2023-09-12T12:10:00;18.4;;;8.6;;
61570;SDS011;47463;49.884;10.010;2023-09-12T12:15:00;15.9;;;8.8;;
61570;SDS011;47463;49.884;10.010;2023-09-12T12:20:00;14.7;;;8.1;;
61570;SDS011;47463;49.884;10.010;2023-09-12T12:25:05;14.7;;;8.1;;
61570;SDS011;47463;49.884;10.010;2023-09-12T12:30:00;12.5;;;8.4;;
61570;SDS011;47463;49.884;10.010;2023-09-12T12:35:00;13.2;;;8.9;;
61570;SDS011;47463;49.884;10.010;2023-09-12T12:40:00;16.2;;;8.5;;
61570;SDS011;47463;49.884;10.010;2023-09-12T12:45:00;15;;;8.6;;
61570;SDS011;47463;49.884;10.010;2023-09-12T12:50:00;18.6;;;9.3;;
61570;SDS011;47463;49.884;10.010;2023-09-12T12:55:03;18.6;;;9.3;;
61570;SDS011;47463;49.884;10.010;2023-09-12T13:00:00;14.6;;;8.7;;
61570;SDS011;47463;49.884;10.010;2023-09-12T13:05:00;16.9;;;8.8;;
61570;SDS011;47463;49.884;10.010;2023-09-12T13:10:00;30.6;;;10.3;;
61570;SDS011;47463;49.884;10.010;2023-09-12T13:15:00;17.4;;;8.5;;
61570;SDS011;47463;49.884;10.010;2023-09-12T13:20:00;16.5;;;8.7;;
61570;SDS011;47463;49.884;10.010;2023-09-12T13:25:00;16.5;;;8.7;;
61570;SDS011;47463;49.884;10.010;2023-09-12T13:30:00;15.6;;;9.3;;
61570;SDS011;47463;49.884;10.010;2023-09-12T13:35:00;20.1;;;9.1;;
61570;SDS011;47463;49.884;10.010;2023-09-12T13:40:00;16;;;8.5;;
61570;SDS011;47463;49.884;10.010;2023-09-12T13:45:00;11.1;;;8.1;;
61570;SDS011;47463;49.884;10.010;2023-09-12T13:50:00;17;;;8.4;;
61570;SDS011;47463;49.884;10.010;2023-09-12T13:55:00;17;;;8.4;;
61570;SDS011;47463;49.884;10.010;2023-09-12T14:00:00;17.6;;;8.3;;
61570;SDS011;47463;49.884;10.010;2023-09-12T14:05:00;16.5;;;8.3;;
61570;SDS011;47463;49.884;10.010;2023-09-12T14:10:00;13.1;;;8.7;;
61570;SDS011;47463;49.884;10.010;2023-09-12T14:15:00;18.5;;;8.4;;
61570;SDS011;47463;49.884;10.010;2023-09-12T14:20:00;17.9;;;8.8;;
61570;SDS011;47463;49.884;10.010;2023-09-12T14:25:00;17.9;;;8.8;;
61570;SDS011;47463;49.884;10.010;2023-09-12T14:30:00;12.6;;;8.1;;
61570;SDS011;47463;49.884;10.010;2023-09-12T14:35:00;14.3;;;8.5;;
61570;SDS011;47463;49.884;10.010;2023-09-12T14:40:02;13.1;;;8.3;;
61570;SDS011;47463;49.884;10.010;2023-09-12T14:45:00;13.7;;;8.6;;
61570;SDS011;47463;49.884;10.010;2023-09-12T14:50:00;15.3;;;9;;
61570;SDS011;47463;49.884;10.010;2023-09-12T14:55:00;15.3;;;9;;
61570;SDS011;47463;49.884;10.010;2023-09-12T15:00:00;12.6;;;8.4;;
61570;SDS011;47463;49.884;10.010;2023-09-12T15:05:00;13.1;;;8.2;;
61570;SDS011;47463;49.884;10.010;2023-09-12T15:10:00;12.2;;;8.3;;
61570;SDS011;47463;49.884;10.010;2023-09-12T15:15:00;13.7;;;8.8;;
61570;SDS011;47463;49.884;10.010;2023-09-12T15:20:00;15.5;;;8.9;;
61570;SDS011;47463;49.884;10.010;2023-09-12T15:25:01;15.5;;;8.9;;
61570;SDS011;47463;49.884;10.010;2023-09-12T15:30:00;15.7;;;8.8;;
61570;SDS011;47463;49.884;10.010;2023-09-12T15:35:00;15.1;;;8.8;;
61570;SDS011;47463;49.884;10.010;2023-09-12T15:40:00;13.8;;;8.4;;
61570;SDS011;47463;49.884;10.010;2023-09-12T15:45:00;18.7;;;8.5;;
61570;SDS011;47463;49.884;10.010;2023-09-12T15:50:00;14.7;;;8.3;;
61570;SDS011;47463;49.884;10.010;2023-09-12T15:55:00;14.7;;;8.3;;
61570;SDS011;47463;49.884;10.010;2023-09-12T16:00:00;14.1;;;8.6;;
61570;SDS011;47463;49.884;10.010;2023-09-12T16:05:00;15.1;;;8.6;;
61570;SDS011;47463;49.884;10.010;2023-09-12T16:10:00;17.2;;;8.1;;
61570;SDS011;47463;49.884;10.010;2023-09-12T16:15:00;15.8;;;8.7;;
61570;SDS011;47463;49.884;10.010;2023-09-12T16:20:00;12.6;;;7.9;;
61570;SDS011;47463;49.884;10.010;2023-09-12T16:25:00;12.6;;;7.9;;
61570;SDS011;47463;49.884;10.010;2023-09-12T16:30:00;13.3;;;8.4;;
61570;SDS011;47463;49.884;10.010;2023-09-12T16:35:00;17.3;;;8.6;;
61570;SDS011;47463;49.884;10.010;2023-09-12T16:40:00;17;;;8.9;;
61570;SDS011;47463;49.884;10.010;2023-09-12T16:45:00;13.9;;;8.5;;
61570;SDS011;47463;49.884;10.010;2023-09-12T16:50:00;14.5;;;9.4;;
61570;SDS011;47463;49.884;10.010;2023-09-12T16:55:00;14.5;;;9.4;;
61570;SDS011;47463;49.884;10.010;2023-09-12T17:00:00;15.8;;;9.4;;
61570;SDS011;47463;49.884;10.010;2023-09-12T17:05:00;14.8;;;9;;
61570;SDS011;47463;49.884;10.010;2023-09-12T17:10:00;12.4;;;9.2;;
61570;SDS011;47463;49.884;10.010;2023-09-12T17:15:00;16.3;;;8.7;;
61570;SDS011;47463;49.884;10.010;2023-09-12T17:20:00;17.2;;;9;;
61570;SDS011;47463;49.884;10.010;2023-09-12T17:25:00;17.2;;;9;;
61570;SDS011;47463;49.884;10.010;2023-09-12T17:30:00;17.4;;;9.4;;
61570;SDS011;47463;49.884;10.010;2023-09-12T17:35:00;16.1;;;10.1;;
61570;SDS011;47463;49.884;10.010;2023-09-12T17:40:00;14.3;;;9.1;;
61570;SDS011;47463;49.884;10.010;2023-09-12T17:45:00;17.2;;;10.5;;
61570;SDS011;47463;49.884;10.010;2023-09-12T17:50:00;17.3;;;9.5;;
61570;SDS011;47463;49.884;10.010;2023-09-12T17:55:00;17.3;;;9.5;;
61570;SDS011;47463;49.884;10.010;2023-09-12T18:00:00;15.9;;;9;;
61570;SDS011;47463;49.884;10.010;2023-09-12T18:05:00;14.1;;;9.7;;
61570;SDS011;47463;49.884;10.010;2023-09-12T18:10:00;15.1;;;9.1;;
61570;SDS011;47463;49.884;10.010;2023-09-12T18:15:00;18.9;;;10.1;;
61570;SDS011;47463;49.884;10.010;2023-09-12T18:20:00;16.3;;;10;;
61570;SDS011;47463;49.884;10.010;2023-09-12T18:25:00;16.3;;;10;;
61570;SDS011;47463;49.884;10.010;2023-09-12T18:30:00;18.7;;;9.6;;
61570;SDS011;47463;49.884;10.010;2023-09-12T18:35:00;17.9;;;10.1;;
61570;SDS011;47463;49.884;10.010;2023-09-12T18:40:00;17.8;;;9.8;;
61570;SDS011;47463;49.884;10.010;2023-09-12T18:45:00;18.7;;;9.8;;
61570;SDS011;47463;49.884;10.010;2023-09-12T18:50:00;17;;;10;;
61570;SDS011;47463;49.884;10.010;2023-09-12T18:55:00;17;;;10;;
61570;SDS011;47463;49.884;10.010;2023-09-12T19:00:00;16.2;;;9.9;;
61570;SDS011;47463;49.884;10.010;2023-09-12T19:05:00;15.1;;;10;;
61570;SDS011;47463;49.884;10.010;2023-09-12T19:10:00;13.6;;;9.2;;
61570;SDS011;47463;49.884;10.010;2023-09-12T19:15:00;16.7;;;9.9;;
61570;SDS011;47463;49.884;10.010;2023-09-12T19:20:00;15.7;;;9.5;;
61570;SDS011;47463;49.884;10.010;2023-09-12T19:25:00;15.7;;;9.5;;
61570;SDS011;47463;49.884;10.010;2023-09-12T19:30:00;16;;;9.8;;
61570;SDS011;47463;49.884;10.010;2023-09-12T19:35:00;16.5;;;9.8;;
61570;SDS011;47463;49.884;10.010;2023-09-12T19:40:00;18.2;;;9.8;;
61570;SDS011;47463;49.884;10.010;2023-09-12T19:45:00;19.2;;;9.9;;
61570;SDS011;47463;49.884;10.010;2023-09-12T19:50:00;15.8;;;10.2;;
61570;SDS011;47463;49.884;10.010;2023-09-12T19:55:00;15.8;;;10.2;;
61570;SDS011;47463;49.884;10.010;2023-09-12T20:00:00;18.8;;;10;;
61570;SDS011;47463;49.884;10.010;2023-09-12T20:05:00;17.1;;;10.2;;
61570;SDS011;47463;49.884;10.010;2023-09-12T20:10:00;14.8;;;9.9;;
61570;SDS011;47463;49.884;10.010;2023-09-12T20:15:00;17.9;;;10.4;;
61570;SDS011;47463;49.884;10.010;2023-09-12T20:20:00;20.4;;;10.1;;
61570;SDS011;47463;49.884;10.010;2023-09-12T20:25:00;20.4;;;10.1;;
61570;SDS011;47463;49.884;10.010;2023-09-12T20:30:00;14.9;;;9.9;;
61570;SDS011;47463;49.884;10.010;2023-09-12T20:35:00;21.3;;;10.2;;
61570;SDS011;47463;49.884;10.010;2023-09-12T20:40:00;22.4;;;11.6;;
61570;SDS011;47463;49.884;10.010;2023-09-12T20:45:00;18.9;;;12.1;;
61570;SDS011;47463;49.884;10.010;2023-09-12T20:50:01;23.4;;;12.6;;
61570;SDS011;47463;49.884;10.010;2023-09-12T20:55:00;23.4;;;12.6;;
61570;SDS011;47463;49.884;10.010;2023-09-12T21:00:00;18.1;;;11.6;;
61570;SDS011;47463;49.884;10.010;2023-09-12T21:05:00;17.4;;;11;;
61570;SDS011;47463;49.884;10.010;2023-09-12T21:10:00;16.8;;;10.5;;
61570;SDS011;47463;49.884;10.010;2023-09-12T21:15:00;16;;;11.1;;
61570;SDS011;47463;49.884;10.010;2023-09-12T21:20:00;19.5;;;11.5;;
61570;SDS011;47463;49.884;10.010;2023-09-12T21:25:00;19.5;;;11.5;;
61570;SDS011;47463;49.884;10.010;2023-09-12T21:30:01;17.8;;;11.3;;
61570;SDS011;47463;49.884;10.010;2023-09-12T21:35:07;19.3;;;12.3;;
61570;SDS011;47463;49.884;10.010;2023-09-12T21:40:00;17.2;;;12.1;;
61570;SDS011;47463;49.884;10.010;2023-09-12T21:45:00;14;;;9.2;;
61570;SDS011;47463;49.884;10.010;2023-09-12T21:50:00;15.5;;;9.3;;
61570;SDS011;47463;49.884;10.010;2023-09-12T21:55:00;15.5;;;9.3;;
61570;SDS011;47463;49.884;10.010;2023-09-12T22:00:00;16.8;;;10.1;;
61570;SDS011;47463;49.884;10.010;2023-09-12T22:05:00;17.7;;;11.2;;
61570;SDS011;47463;49.884;10.010;2023-09-12T22:10:00;20;;;12.1;;
61570;SDS011;47463;49.884;10.010;2023-09-12T22:15:00;17.9;;;11.9;;
61570;SDS011;47463;49.884;10.010;2023-09-12T22:20:00;16.7;;;10.5;;
61570;SDS011;47463;49.884;10.010;2023-09-12T22:25:00;16.7;;;10.5;;
61570;SDS011;47463;49.884;10.010;2023-09-12T22:30:00;17;;;11.1;;
61570;SDS011;47463;49.884;10.010;2023-09-12T22:35:00;16.4;;;11.1;;
61570;SDS011;47463;49.884;10.010;2023-09-12T22:40:00;14.7;;;10.2;;
61570;SDS011;47463;49.884;10.010;2023-09-12T22:45:00;17.3;;;10.7;;
61570;SDS011;47463;49.884;10.010;2023-09-12T22:50:01;18.7;;;11.6;;
61570;SDS011;47463;49.884;10.010;2023-09-12T22:55:00;18.7;;;11.6;;
61570;SDS011;47463;49.884;10.010;2023-09-12T23:00:00;20.1;;;12.2;;
61570;SDS011;47463;49.884;10.010;2023-09-12T23:05:00;18;;;12.2;;
61570;SDS011;47463;49.884;10.010;2023-09-12T23:10:00;18.6;;;12.6;;
61570;SDS011;47463;49.884;10.010;2023-09-12T23:15:00;17.1;;;11.3;;
61570;SDS011;47463;49.884;10.010;2023-09-12T23:20:00;17.8;;;12.1;;
61570;SDS011;47463;49.884;10.010;2023-09-12T23:25:00;17.8;;;12.1;;
61570;SDS011;47463;49.884;10.010;2023-09-12T23:30:00;21.1;;;12.6;;
61570;SDS011;47463;49.884;10.010;2023-09-12T23:35:00;16.2;;;12;;
61570;SDS011;47463;49.884;10.010;2023-09-12T23:40:00;18.9;;;12.6;;
61570;SDS011;47463;49.884;10.010;2023-09-12T23:45:01;17.7;;;11.9;;
61570;SDS011;47463;49.884;10.010;2023-09-12T23:50:00;22.5;;;12.7;;
61570;SDS011;47463;49.884;10.010;2023-09-12T23:55:00;22.5;;;12.7;;
